Time;durP1;ratioP1;P1;durP2;ratioP2;P2;SDS_P1;SDS_P2;PMS_P1;PMS_P2;Temp;Humidity;BMP_temperature;BMP_pressure;BME280_temperature;BME280_humidity;BME280_pressure;Samples;Min_cycle;Max_cycle;Signal;HPM_P1;HPM_P2
2023/04/14 00:03:52;;;;;;;7.55;2.95;;;;;;;13.05;71.03;101052.66;12857400;22;99158;-82
2023/04/14 00:08:57;;;;;;;6.53;2.90;;;;;;;13.06;70.93;101067.59;12858234;22;99037;-82
2023/04/14 00:14:01;;;;;;;;;;;;;;;12.94;71.78;101048.69;12858215;22;97843;-82
2023/04/14 00:19:05;;;;;;;11.15;4.10;;;;;;;13.01;71.19;101052.84;12858604;22;99425;-82
2023/04/14 00:24:09;;;;;;;8.18;3.28;;;;;;;13.09;71.18;101043.72;12857400;22;97686;-82
2023/04/14 00:29:13;;;;;;;7.80;2.78;;;;;;;13.15;71.45;101045.25;12858372;22;99522;-82
2023/04/14 00:34:16;;;;;;;6.00;2.65;;;;;;;13.11;71.90;101051.56;12858456;22;99476;-82
2023/04/14 00:39:21;;;;;;;9.25;3.30;;;;;;;13.13;71.64;101032.13;12858759;22;98722;-83
2023/04/14 00:44:25;;;;;;;8.48;3.05;;;;;;;13.25;71.00;101017.56;12858046;22;98972;-83
2023/04/14 00:49:28;;;;;;;10.05;3.03;;;;;;;13.19;71.24;101018.66;12858455;22;99054;-82
2023/04/14 00:54:35;;;;;;;7.35;3.13;;;;;;;13.17;71.18;101012.56;12856160;22;99393;-82
2023/04/14 00:59:38;;;;;;;8.20;2.72;;;;;;;13.27;70.77;101021.88;12858347;22;99397;-82
2023/04/14 01:04:42;;;;;;;7.68;3.25;;;;;;;13.05;71.40;101020.13;12857921;22;98886;-82
2023/04/14 01:09:59;;;;;;;6.35;2.83;;;;;;;13.01;71.68;101022.00;12857918;22;99529;-82
2023/04/14 01:15:11;;;;;;;8.30;2.90;;;;;;;12.95;72.55;101040.72;12857895;22;99042;-82
2023/04/14 01:20:23;;;;;;;9.43;2.92;;;;;;;13.01;72.59;101029.06;12858435;22;99038;-83
2023/04/14 01:26:10;;;;;;;8.68;3.30;;;;;;;13.03;72.69;101016.66;12856579;22;98436;-82
2023/04/14 01:31:25;;;;;;;7.70;3.13;;;;;;;12.96;73.46;101010.75;12838882;22;98965;-82
2023/04/14 01:36:37;;;;;;;7.10;2.90;;;;;;;13.07;72.35;101013.84;12857711;22;98868;-82
2023/04/14 01:41:47;;;;;;;8.00;2.50;;;;;;;13.12;71.62;101009.22;12856609;22;98837;-82
2023/04/14 01:46:56;;;;;;;8.75;3.03;;;;;;;13.20;71.91;101006.31;12855191;22;98781;-82
2023/04/14 01:52:01;;;;;;;6.00;2.80;;;;;;;13.22;71.84;100993.91;12855838;22;98867;-82
2023/04/14 01:57:06;;;;;;;8.25;2.55;;;;;;;13.14;72.12;101010.03;12856256;22;99244;-83
2023/04/14 02:02:13;;;;;;;6.28;2.42;;;;;;;13.20;71.97;101014.25;12855977;22;99106;-82
2023/04/14 02:07:19;;;;;;;8.52;3.15;;;;;;;13.19;71.96;101000.16;12855985;22;99238;-82
2023/04/14 02:12:26;;;;;;;7.53;2.60;;;;;;;13.23;71.85;101014.13;12856021;22;98245;-82
2023/04/14 02:17:32;;;;;;;7.80;2.67;;;;;;;13.21;71.92;101011.53;12855944;22;98925;-83
2023/04/14 02:22:36;;;;;;;7.45;2.50;;;;;;;13.23;72.30;101011.47;12856580;22;98885;-82
2023/04/14 02:27:46;;;;;;;7.57;2.78;;;;;;;13.25;72.00;100991.13;12855769;22;99426;-83
2023/04/14 02:33:01;;;;;;;5.80;2.47;;;;;;;13.11;72.00;100970.53;12855630;22;98922;-82
2023/04/14 02:38:08;;;;;;;9.18;2.60;;;;;;;13.15;72.21;100969.50;12855580;22;98977;-82
2023/04/14 02:43:14;;;;;;;10.15;3.25;;;;;;;13.24;72.17;100968.28;12857973;22;98934;-82
2023/04/14 02:48:21;;;;;;;5.30;2.33;;;;;;;13.19;72.43;100963.16;12858110;22;98912;-82
2023/04/14 02:53:27;;;;;;;9.68;2.47;;;;;;;13.15;72.40;100958.06;12857539;22;98865;-82
2023/04/14 02:58:32;;;;;;;9.05;2.80;;;;;;;13.17;72.77;100957.06;12858114;22;98949;-83
2023/04/14 03:03:37;;;;;;;6.40;2.67;;;;;;;13.19;72.66;100960.50;12857809;22;99089;-83
2023/04/14 03:08:41;;;;;;;8.32;2.33;;;;;;;13.17;72.77;100962.34;12858011;22;99222;-83
2023/04/14 03:13:45;;;;;;;6.88;2.63;;;;;;;13.03;73.18;100946.19;12858277;22;99198;-83
2023/04/14 03:18:53;;;;;;;9.63;2.93;;;;;;;13.07;73.01;100947.78;12858123;22;99013;-83
2023/04/14 03:23:57;;;;;;;10.70;3.45;;;;;;;13.15;73.31;100944.84;12857294;22;98860;-83
2023/04/14 03:29:03;;;;;;;8.67;3.07;;;;;;;13.03;73.98;100932.97;12855657;22;97865;-83
2023/04/14 03:34:09;;;;;;;6.50;3.38;;;;;;;12.82;75.22;100939.09;12857504;22;98969;-82
2023/04/14 03:39:13;;;;;;;13.55;3.55;;;;;;;12.74;75.45;100941.13;12857516;22;98989;-83
2023/04/14 03:44:18;;;;;;;8.20;2.27;;;;;;;12.78;74.36;100944.53;12856885;22;98133;-83
2023/04/14 03:49:24;;;;;;;8.25;2.00;;;;;;;12.94;73.99;100943.03;12857127;22;99068;-83
2023/04/14 03:54:31;;;;;;;6.57;2.00;;;;;;;13.02;73.60;100922.44;12856893;22;99005;-83
2023/04/14 03:59:36;;;;;;;6.63;2.10;;;;;;;13.01;73.68;100929.53;12857670;22;99241;-83
2023/04/14 04:04:42;;;;;;;13.40;2.15;;;;;;;13.10;72.57;100920.38;12857467;22;97651;-83
2023/04/14 04:09:47;;;;;;;6.10;1.73;;;;;;;13.15;72.44;100910.50;12857207;22;98856;-83
2023/04/14 04:14:50;;;;;;;;;;;;;;;13.11;73.17;100925.59;12857729;22;99059;-83
2023/04/14 04:19:57;;;;;;;7.65;2.13;;;;;;;13.24;72.03;100916.25;12856163;22;99231;-82
2023/04/14 04:25:00;;;;;;;6.38;2.03;;;;;;;13.28;72.62;100911.72;12855400;22;98162;-82
2023/04/14 04:30:08;;;;;;;7.30;1.98;;;;;;;13.24;72.94;100905.69;12856870;22;99231;-82
2023/04/14 04:35:13;;;;;;;7.15;2.33;;;;;;;13.38;72.69;100906.00;12856939;22;99047;-82
2023/04/14 04:40:16;;;;;;;;;;;;;;;13.35;73.13;100907.91;12857632;22;98963;-83
2023/04/14 04:45:36;;;;;;;8.57;2.50;;;;;;;13.40;72.64;100904.16;12857050;22;99236;-82
2023/04/14 04:50:41;;;;;;;7.45;2.47;;;;;;;13.45;72.69;100909.25;12856820;22;98253;-82
2023/04/14 04:55:44;;;;;;;7.88;2.50;;;;;;;13.44;72.91;100907.53;12857417;22;98371;-82
2023/04/14 05:00:48;;;;;;;6.85;2.00;;;;;;;13.37;73.01;100903.41;12856249;22;98549;-82
2023/04/14 05:05:52;;;;;;;5.43;2.05;;;;;;;13.37;73.02;100903.41;12855981;22;97503;-82
2023/04/14 05:10:55;;;;;;;7.75;2.28;;;;;;;13.37;73.00;100906.94;12854964;22;99092;-83
2023/04/14 05:16:03;;;;;;;6.25;1.77;;;;;;;13.44;73.21;100894.31;12856562;22;98905;-84
2023/04/14 05:21:10;;;;;;;6.60;2.15;;;;;;;13.34;74.12;100895.63;12856917;22;99535;-84
2023/04/14 05:26:13;;;;;;;4.88;1.88;;;;;;;13.17;74.75;100887.50;12856049;22;98956;-84
2023/04/14 05:31:37;;;;;;;8.98;2.03;;;;;;;13.21;74.94;100884.69;12856130;22;100729;-84
2023/04/14 05:36:41;;;;;;;6.45;1.60;;;;;;;13.25;75.04;100894.22;12856617;22;99304;-84
2023/04/14 05:41:45;;;;;;;;;;;;;;;13.15;74.85;100886.72;12856717;22;97824;-84
2023/04/14 05:46:48;;;;;;;7.10;1.80;;;;;;;13.26;74.25;100880.06;12857683;22;99097;-84
2023/04/14 05:51:54;;;;;;;6.85;1.80;;;;;;;13.15;74.54;100876.13;12855961;22;98997;-84
2023/04/14 05:56:58;;;;;;;5.25;1.85;;;;;;;13.21;74.45;100878.53;12856155;22;98957;-83
2023/04/14 06:02:05;;;;;;;5.47;1.63;;;;;;;13.17;74.77;100893.63;12854136;22;96838;-83
2023/04/14 06:07:11;;;;;;;6.18;1.67;;;;;;;13.29;74.15;100906.34;12856238;22;99102;-83
2023/04/14 06:12:16;;;;;;;6.88;2.35;;;;;;;13.28;74.57;100896.72;12855493;22;98948;-83
2023/04/14 06:17:20;;;;;;;7.57;1.65;;;;;;;13.28;74.24;100895.84;12856422;22;99105;-83
2023/04/14 06:22:28;;;;;;;8.85;2.15;;;;;;;13.23;74.42;100890.75;12855681;22;99208;-82
2023/04/14 06:27:32;;;;;;;11.88;1.98;;;;;;;13.27;74.73;100891.50;12855745;22;99029;-83
2023/04/14 06:32:36;;;;;;;4.43;1.63;;;;;;;13.33;74.33;100888.59;12855465;22;99192;-84
2023/04/14 06:37:41;;;;;;;6.40;1.90;;;;;;;13.38;74.35;100895.41;12856047;22;99285;-83
2023/04/14 06:42:44;;;;;;;12.80;2.28;;;;;;;13.38;74.67;100911.28;12855579;22;99017;-83
2023/04/14 06:47:48;;;;;;;5.25;2.00;;;;;;;13.44;74.62;100918.09;12855209;22;99261;-83
2023/04/14 06:52:53;;;;;;;13.23;2.30;;;;;;;13.42;75.26;100941.97;12853422;22;98868;-83
2023/04/14 06:57:56;;;;;;;9.48;2.33;;;;;;;13.34;76.28;100944.06;12855373;22;98862;-83
2023/04/14 07:03:00;;;;;;;8.18;1.98;;;;;;;13.35;76.24;100944.91;12855214;22;98934;-83
2023/04/14 07:08:07;;;;;;;8.07;1.55;;;;;;;13.33;76.88;100939.69;12855067;22;98939;-83
2023/04/14 07:13:10;;;;;;;7.55;1.77;;;;;;;13.35;77.10;100951.06;12855861;22;98958;-83
2023/04/14 07:18:14;;;;;;;11.80;2.22;;;;;;;13.41;77.33;100947.31;12855649;22;98767;-83
2023/04/14 07:23:18;;;;;;;6.07;2.28;;;;;;;13.41;77.44;100932.34;12856703;22;98939;-83
2023/04/14 07:28:23;;;;;;;6.72;2.67;;;;;;;13.53;77.51;100936.25;12859112;22;98942;-84
2023/04/14 07:33:29;;;;;;;9.50;3.03;;;;;;;13.59;76.77;100938.63;12857782;22;99263;-84
2023/04/14 07:38:36;;;;;;;7.72;2.67;;;;;;;13.64;76.69;100950.75;12857683;22;99142;-83
2023/04/14 07:43:39;;;;;;;7.55;1.80;;;;;;;13.65;76.74;100931.31;12856604;22;98899;-83
2023/04/14 07:48:43;;;;;;;3.97;1.60;;;;;;;13.75;76.57;100950.31;12857947;22;98914;-83
2023/04/14 07:53:48;;;;;;;7.22;2.75;;;;;;;13.76;76.71;100951.19;12856766;22;99103;-83
2023/04/14 07:58:52;;;;;;;7.28;3.88;;;;;;;13.75;77.55;100950.31;12857492;22;99120;-84
2023/04/14 08:03:55;;;;;;;8.15;4.00;;;;;;;13.71;78.17;100943.41;12857930;22;99034;-84
2023/04/14 08:09:02;;;;;;;7.33;3.80;;;;;;;13.76;78.23;100953.81;12857504;22;98934;-84
2023/04/14 08:14:05;;;;;;;7.53;3.53;;;;;;;13.81;78.52;100954.47;12857642;22;99250;-84
2023/04/14 08:19:08;;;;;;;8.48;3.85;;;;;;;13.80;78.69;100948.31;12857253;22;97820;-83
2023/04/14 08:24:13;;;;;;;9.00;4.05;;;;;;;13.94;78.32;100960.97;12856524;22;99321;-83
2023/04/14 08:29:16;;;;;;;9.10;5.00;;;;;;;14.06;78.11;100952.53;12857192;22;99145;-83
2023/04/14 08:34:19;;;;;;;7.82;4.93;;;;;;;14.20;78.16;100947.53;12855494;22;98978;-83
2023/04/14 08:39:32;;;;;;;6.38;3.97;;;;;;;14.37;78.09;100958.22;12857075;22;99012;-83
2023/04/14 08:44:36;;;;;;;8.30;3.78;;;;;;;14.47;77.91;100951.63;12856890;22;99285;-83
2023/04/14 08:49:41;;;;;;;4.63;3.30;;;;;;;14.59;77.52;100938.69;12856497;22;98990;-83
2023/04/14 08:54:48;;;;;;;4.45;2.00;;;;;;;14.94;76.94;100938.88;12857159;22;98937;-82
2023/04/14 08:59:52;;;;;;;6.30;2.20;;;;;;;15.22;76.45;100947.22;12857047;22;99057;-80
2023/04/14 09:04:57;;;;;;;4.70;2.58;;;;;;;15.16;75.98;100952.84;12857071;22;99249;-79
2023/04/14 09:10:02;;;;;;;;;;;;;;;14.79;76.58;100964.28;12857638;22;98027;-80
2023/04/14 09:15:07;;;;;;;5.13;2.35;;;;;;;14.66;78.10;100977.19;12857197;22;98927;-80
2023/04/14 09:20:11;;;;;;;5.20;2.55;;;;;;;14.62;78.54;100962.41;12856634;22;99250;-79
2023/04/14 09:25:37;;;;;;;2.63;2.07;;;;;;;14.76;79.18;100970.59;12854527;22;100936;-78
2023/04/14 09:30:41;;;;;;;5.00;3.30;;;;;;;14.74;79.78;100990.13;12856596;22;97876;-78
2023/04/14 09:35:47;;;;;;;5.40;3.23;;;;;;;14.79;79.44;100996.94;12856414;22;98907;-79
2023/04/14 09:40:51;;;;;;;3.65;2.50;;;;;;;14.79;79.66;100988.13;12855732;22;97595;-79
2023/04/14 09:46:04;;;;;;;3.40;2.22;;;;;;;15.09;79.40;101009.72;12856011;22;98805;-78
2023/04/14 09:51:09;;;;;;;4.15;2.40;;;;;;;15.08;79.24;101008.00;12856403;22;98927;-79
2023/04/14 09:56:14;;;;;;;3.35;2.20;;;;;;;15.24;79.57;101014.31;12855736;22;99255;-79
2023/04/14 10:01:20;;;;;;;2.35;1.77;;;;;;;14.96;79.30;101014.72;12857168;22;98914;-78
2023/04/14 10:06:25;;;;;;;3.55;2.00;;;;;;;15.00;80.04;101023.38;12856352;22;99238;-78
2023/04/14 10:11:31;;;;;;;25.27;6.18;;;;;;;15.28;79.84;101015.91;12856067;22;98827;-79
2023/04/14 10:16:35;;;;;;;9.88;4.22;;;;;;;15.42;79.49;101027.63;12854513;22;98906;-78
2023/04/14 10:21:38;;;;;;;3.35;2.47;;;;;;;15.35;79.92;101015.56;12854811;22;98175;-79
2023/04/14 10:26:46;;;;;;;2.88;2.00;;;;;;;15.99;78.87;101008.00;12855951;22;99327;-78
2023/04/14 10:31:53;;;;;;;5.03;1.73;;;;;;;16.47;77.67;101013.53;12855574;22;98871;-79
2023/04/14 10:37:12;;;;;;;3.40;1.73;;;;;;;16.28;78.16;101020.69;12855538;22;99089;-79
2023/04/14 10:42:16;;;;;;;2.70;1.60;;;;;;;16.05;78.63;101025.44;12855540;22;98783;-79
2023/04/14 10:47:23;;;;;;;1.98;1.30;;;;;;;15.79;78.69;101024.03;12855299;22;99257;-85
2023/04/14 10:52:33;;;;;;;3.85;1.50;;;;;;;15.69;78.79;101033.38;12856030;22;99023;-86
2023/04/14 10:57:43;;;;;;;3.25;1.50;;;;;;;15.55;78.86;101026.09;12856163;22;98838;-85
2023/04/14 11:02:55;;;;;;;2.17;1.48;;;;;;;15.42;79.87;101024.97;12864700;22;98983;-85
2023/04/14 11:08:00;;;;;;;2.10;1.80;;;;;;;15.62;79.87;101022.22;12863751;22;97799;-84
2023/04/14 11:13:11;;;;;;;1.92;1.35;;;;;;;15.68;79.28;101013.94;12859804;22;98221;-84
2023/04/14 11:18:16;;;;;;;2.95;1.83;;;;;;;15.88;79.45;101013.84;12858101;22;97933;-84
2023/04/14 11:23:27;;;;;;;3.95;2.08;;;;;;;16.10;78.87;101002.16;12857425;22;99145;-84
2023/04/14 11:28:33;;;;;;;2.83;1.92;;;;;;;16.10;79.27;101003.00;12857656;22;98963;-84
2023/04/14 11:33:38;;;;;;;2.42;1.52;;;;;;;16.01;79.11;100971.63;12857732;22;99036;-85
2023/04/14 11:38:42;;;;;;;2.65;1.70;;;;;;;16.05;79.43;100985.63;12857460;22;98995;-85
2023/04/14 11:43:47;;;;;;;4.17;1.73;;;;;;;16.21;79.92;100983.88;12859228;22;99262;-85
2023/04/14 11:48:55;;;;;;;3.97;2.00;;;;;;;16.07;79.24;100991.69;12857787;22;99071;-85
2023/04/14 11:53:59;;;;;;;4.72;2.10;;;;;;;16.01;79.84;100986.69;12857227;22;99145;-86
2023/04/14 11:59:05;;;;;;;4.25;2.05;;;;;;;15.82;81.06;100981.44;12859192;22;98923;-87
2023/04/14 12:04:09;;;;;;;3.60;2.33;;;;;;;15.73;81.79;100980.09;12860238;22;98614;-86
2023/04/14 12:09:12;;;;;;;5.57;3.17;;;;;;;15.80;81.78;100976.19;12856119;22;98333;-84
2023/04/14 12:14:18;;;;;;;6.75;2.95;;;;;;;15.97;81.28;100983.34;12857145;22;98853;-84
2023/04/14 12:19:22;;;;;;;6.28;3.05;;;;;;;16.21;80.54;100971.47;12857207;22;98956;-84
2023/04/14 12:24:32;;;;;;;4.80;3.03;;;;;;;16.25;80.03;100982.78;12857119;22;99102;-84
2023/04/14 12:29:37;;;;;;;9.57;3.75;;;;;;;16.19;80.58;100977.78;12856936;22;99043;-84
2023/04/14 12:34:40;;;;;;;;;;;;;;;16.02;81.50;100973.34;12858679;22;99024;-84
2023/04/14 12:39:50;;;;;;;6.35;2.95;;;;;;;16.10;80.88;100981.75;12857362;22;99187;-84
2023/04/14 12:44:56;;;;;;;8.15;3.10;;;;;;;16.15;80.13;100982.38;12857245;22;99009;-83
2023/04/14 12:50:01;;;;;;;9.43;3.65;;;;;;;16.28;80.66;100969.34;12857196;22;98842;-89
2023/04/14 12:55:05;;;;;;;5.80;2.83;;;;;;;16.40;80.79;100985.56;12858843;22;98933;-85
2023/04/14 13:00:11;;;;;;;4.23;2.83;;;;;;;16.66;79.40;100974.41;12856758;22;99006;-84
2023/04/14 13:05:14;;;;;;;6.53;2.80;;;;;;;16.89;78.91;100965.22;12856878;22;99036;-83
2023/04/14 13:10:18;;;;;;;7.53;2.80;;;;;;;16.83;79.05;100970.84;12856689;22;98862;-83
2023/04/14 13:15:22;;;;;;;12.45;3.78;;;;;;;16.60;79.35;100963.25;12856608;22;98942;-83
2023/04/14 13:20:52;;;;;;;12.53;3.90;;;;;;;16.33;80.11;100964.66;12857200;22;100632;-86
2023/04/14 13:25:56;;;;;;;13.40;3.95;;;;;;;16.34;80.99;100969.03;12860344;22;99454;-84
2023/04/14 13:31:00;;;;;;;10.02;3.90;;;;;;;16.38;80.73;100963.47;12856395;22;97988;-83
2023/04/14 13:36:04;;;;;;;14.15;3.95;;;;;;;16.21;80.79;100938.72;12856832;22;99235;-87
2023/04/14 13:41:07;;;;;;;11.10;4.20;;;;;;;16.68;79.87;100942.44;12854984;22;98959;-84
2023/04/14 13:46:12;;;;;;;8.80;3.83;;;;;;;17.01;78.72;100943.28;12856171;22;99206;-82
2023/04/14 13:51:15;;;;;;;;;;;;;;;16.97;78.39;100931.06;12856933;22;98928;-82
2023/04/14 13:56:21;;;;;;;12.45;3.90;;;;;;;16.87;78.38;100932.53;12856037;22;99577;-82
2023/04/14 14:01:26;;;;;;;12.13;4.43;;;;;;;16.73;78.71;100940.38;12856134;22;98846;-82
2023/04/14 14:06:30;;;;;;;11.13;4.53;;;;;;;16.67;78.91;100946.88;12856235;22;99367;-83
2023/04/14 14:11:33;;;;;;;13.18;4.38;;;;;;;16.29;79.83;100953.31;12857905;22;99015;-89
2023/04/14 14:16:38;;;;;;;14.85;5.90;;;;;;;16.19;81.49;100960.06;12867834;22;98787;-89
2023/04/14 14:21:42;;;;;;;11.93;4.65;;;;;;;16.19;81.75;100954.75;12864567;22;98950;-90
2023/04/14 14:26:45;;;;;;;12.68;5.75;;;;;;;16.15;82.57;100960.31;12863081;22;99232;-86
2023/04/14 14:31:50;;;;;;;10.93;5.55;;;;;;;16.09;83.54;100948.19;12858139;22;99624;-87
2023/04/14 14:36:54;;;;;;;11.63;4.72;;;;;;;16.04;83.71;100955.53;12871091;22;98902;-88
2023/04/14 14:41:57;;;;;;;7.85;4.22;;;;;;;16.10;83.47;100947.25;12869031;22;98920;-87
2023/04/14 14:47:02;;;;;;;5.60;3.20;;;;;;;16.09;83.29;100934.91;12871325;22;99019;-88
2023/04/14 14:52:06;;;;;;;5.32;2.40;;;;;;;16.19;83.62;100935.28;12868527;22;99162;-90
2023/04/14 14:57:09;;;;;;;5.50;2.47;;;;;;;16.19;83.30;100928.19;12864376;22;98887;-86
2023/04/14 15:02:13;;;;;;;5.70;2.45;;;;;;;16.18;83.61;100928.28;12867360;22;99208;-88
2023/04/14 15:07:17;;;;;;;;;;;;;;;16.07;84.61;100925.31;12864838;22;99405;-87
2023/04/14 15:12:22;;;;;;;4.70;2.72;;;;;;;16.06;84.10;100928.91;12863933;22;98907;-88
2023/04/14 15:17:30;;;;;;;4.72;2.30;;;;;;;16.10;84.32;100923.34;12864272;22;98821;-88
2023/04/14 15:22:35;;;;;;;4.22;1.85;;;;;;;16.08;84.86;100924.38;12860549;22;99132;-88
2023/04/14 15:27:39;;;;;;;2.80;1.70;;;;;;;16.16;84.27;100923.03;12864758;22;98578;-86
2023/04/14 15:32:45;;;;;;;3.33;1.37;;;;;;;16.13;84.59;100925.00;12861848;22;99011;-86
2023/04/14 15:37:49;;;;;;;1.42;1.00;;;;;;;16.29;84.56;100924.13;12861466;22;99032;-82
2023/04/14 15:42:53;;;;;;;2.15;1.02;;;;;;;16.27;84.01;100925.97;12861003;22;98900;-85
2023/04/14 15:47:57;;;;;;;2.08;1.10;;;;;;;16.23;84.55;100924.44;12857631;22;99112;-84
2023/04/14 15:53:00;;;;;;;3.17;1.13;;;;;;;16.27;85.07;100927.81;12857811;22;98968;-86
2023/04/14 15:58:04;;;;;;;2.33;1.27;;;;;;;16.31;84.74;100926.69;12858650;22;98635;-85
2023/04/14 16:03:10;;;;;;;2.40;1.10;;;;;;;16.17;84.31;100929.22;12856268;22;97870;-86
2023/04/14 16:08:14;;;;;;;1.98;0.90;;;;;;;16.18;84.90;100938.91;12857238;22;99079;-86
2023/04/14 16:13:17;;;;;;;1.38;1.02;;;;;;;16.13;85.43;100930.31;12856002;22;99282;-83
2023/04/14 16:18:22;;;;;;;1.73;0.90;;;;;;;16.13;84.89;100932.97;12857204;22;98898;-82
2023/04/14 16:23:27;;;;;;;2.15;0.90;;;;;;;16.14;85.04;100938.19;12857152;22;98111;-81
2023/04/14 16:28:30;;;;;;;2.58;0.90;;;;;;;16.05;85.21;100945.78;12857130;22;99104;-82
2023/04/14 16:33:35;;;;;;;3.00;0.80;;;;;;;16.10;84.93;100943.75;12856976;22;98953;-86
2023/04/14 16:38:39;;;;;;;1.90;0.60;;;;;;;16.01;85.12;100947.75;12857189;22;99203;-87
2023/04/14 16:43:42;;;;;;;1.27;0.60;;;;;;;16.00;85.27;100939.81;12857385;22;99038;-83
2023/04/14 16:48:46;;;;;;;0.70;0.60;;;;;;;16.02;85.40;100945.91;12858039;22;98937;-83
2023/04/14 16:53:50;;;;;;;0.70;0.52;;;;;;;16.02;85.41;100949.44;12855472;22;98180;-84
2023/04/14 16:58:53;;;;;;;0.90;0.73;;;;;;;15.99;85.45;100941.63;12856518;22;99025;-83
2023/04/14 17:03:58;;;;;;;2.33;0.77;;;;;;;15.97;85.19;100953.25;12855700;22;99073;-84
2023/04/14 17:09:02;;;;;;;1.98;0.60;;;;;;;16.00;85.23;100953.09;12856184;22;97887;-81
2023/04/14 17:14:06;;;;;;;0.82;0.70;;;;;;;16.01;85.24;100955.69;12856819;22;99037;-82
2023/04/14 17:19:11;;;;;;;;;;;;;;;16.00;86.20;100961.06;12856602;22;98018;-82
2023/04/14 17:24:14;;;;;;;2.15;0.70;;;;;;;16.02;85.26;100962.72;12856843;22;99204;-82
2023/04/14 17:29:18;;;;;;;0.98;0.77;;;;;;;16.09;85.25;100963.25;12856682;22;99419;-82
2023/04/14 17:34:22;;;;;;;1.10;0.82;;;;;;;16.07;85.37;100959.81;12856712;22;99187;-82
2023/04/14 17:39:27;;;;;;;3.00;0.98;;;;;;;16.11;85.01;100966.69;12857335;22;99287;-81
2023/04/14 17:44:32;;;;;;;1.33;0.85;;;;;;;16.06;85.94;100966.06;12856534;22;99130;-81
2023/04/14 17:49:37;;;;;;;1.48;1.00;;;;;;;16.05;85.69;100977.66;12856355;22;99257;-82
2023/04/14 17:54:40;;;;;;;1.80;0.98;;;;;;;16.05;86.12;100978.47;12853917;22;96739;-81
2023/04/14 17:59:44;;;;;;;2.05;1.10;;;;;;;16.05;85.84;100986.44;12856428;22;98539;-82
2023/04/14 18:04:49;;;;;;;1.75;1.17;;;;;;;16.07;85.80;100992.53;12857043;22;98996;-84
2023/04/14 18:09:53;;;;;;;1.92;1.08;;;;;;;16.08;86.04;100994.28;12855141;22;99018;-82
2023/04/14 18:14:56;;;;;;;1.77;1.30;;;;;;;16.04;86.34;100994.50;12856202;22;98948;-83
2023/04/14 18:20:03;;;;;;;2.08;1.10;;;;;;;15.99;86.37;100999.19;12856276;22;98957;-85
2023/04/14 18:25:07;;;;;;;2.03;1.27;;;;;;;16.00;86.37;100991.13;12855785;22;99051;-86
2023/04/14 18:30:11;;;;;;;3.57;1.60;;;;;;;15.99;86.15;101012.44;12856573;22;99079;-84
2023/04/14 18:35:16;;;;;;;2.95;1.92;;;;;;;15.93;86.71;101001.19;12855270;22;98305;-83
2023/04/14 18:40:19;;;;;;;;;;;;;;;15.89;86.96;101001.44;12856530;22;99504;-82
2023/04/14 18:45:23;;;;;;;2.58;1.90;;;;;;;15.88;86.61;100994.41;12853585;22;97929;-82
2023/04/14 18:50:29;;;;;;;4.15;2.08;;;;;;;15.89;86.78;101009.41;12855559;22;99080;-82
2023/04/14 18:55:32;;;;;;;3.70;2.53;;;;;;;15.93;86.47;101008.31;12853982;22;97925;-81
2023/04/14 19:00:48;;;;;;;4.50;3.00;;;;;;;15.88;86.65;101016.50;12855193;22;98924;-81
2023/04/14 19:05:54;;;;;;;4.53;2.72;;;;;;;15.89;86.05;101014.72;12855770;22;99196;-82
2023/04/14 19:10:58;;;;;;;3.75;2.65;;;;;;;15.89;86.37;101025.34;12855212;22;98944;-82
2023/04/14 19:16:07;;;;;;;3.50;2.55;;;;;;;15.87;86.49;101024.53;12854119;22;98349;-82
2023/04/14 19:21:12;;;;;;;3.58;2.50;;;;;;;15.91;86.10;101024.31;12857948;22;98919;-82
2023/04/14 19:26:16;;;;;;;9.10;3.65;;;;;;;15.88;86.18;101028.91;12857529;22;98835;-82
2023/04/14 19:31:20;;;;;;;6.78;3.70;;;;;;;15.87;86.42;101033.34;12857595;22;98927;-82
2023/04/14 19:36:25;;;;;;;5.70;2.90;;;;;;;15.79;86.63;101045.28;12856153;22;99008;-82
2023/04/14 19:41:28;;;;;;;5.32;3.58;;;;;;;15.79;86.26;101045.28;12857116;22;99303;-81
2023/04/14 19:46:31;;;;;;;5.43;3.67;;;;;;;15.72;86.47;101050.00;12857751;22;99280;-81
2023/04/14 19:51:36;;;;;;;7.82;3.90;;;;;;;15.70;86.58;101065.16;12857172;22;99201;-81
2023/04/14 19:56:40;;;;;;;9.93;4.05;;;;;;;15.69;86.53;101068.75;12857242;22;98858;-81
2023/04/14 20:01:43;;;;;;;11.75;4.10;;;;;;;15.67;86.64;101080.34;12856611;22;97807;-81
2023/04/14 20:06:48;;;;;;;10.00;3.80;;;;;;;15.58;86.31;101088.78;12858243;22;98966;-81
2023/04/14 20:11:52;;;;;;;8.35;4.20;;;;;;;15.53;86.30;101085.44;12858036;22;99073;-81
2023/04/14 20:16:55;;;;;;;7.55;3.78;;;;;;;15.44;86.19;101085.91;12857123;22;98999;-81
2023/04/14 20:22:00;;;;;;;9.25;4.20;;;;;;;15.41;86.10;101101.91;12856934;22;97945;-81
2023/04/14 20:27:04;;;;;;;7.68;4.25;;;;;;;15.37;86.08;101101.19;12855353;22;98919;-81
2023/04/14 20:32:08;;;;;;;7.45;4.07;;;;;;;15.33;86.14;101110.25;12856523;22;98809;-81
2023/04/14 20:37:12;;;;;;;9.75;3.83;;;;;;;15.29;85.36;101116.63;12857011;22;99251;-81
2023/04/14 20:42:16;;;;;;;7.03;4.00;;;;;;;15.34;85.50;101125.22;12856603;22;98458;-81
2023/04/14 20:47:19;;;;;;;10.88;4.22;;;;;;;15.39;85.49;101128.53;12856851;22;98885;-81
2023/04/14 20:52:25;;;;;;;10.95;4.15;;;;;;;15.39;85.38;101133.00;12856092;22;99261;-81
2023/04/14 20:57:28;;;;;;;8.75;4.20;;;;;;;15.35;85.03;101134.91;12856898;22;99092;-82
2023/04/14 21:02:31;;;;;;;11.48;5.15;;;;;;;15.26;85.78;101137.09;12857691;22;99245;-82
2023/04/14 21:07:38;;;;;;;11.35;5.28;;;;;;;15.25;85.42;101149.47;12856820;22;99324;-82
2023/04/14 21:12:41;;;;;;;10.80;5.60;;;;;;;15.16;85.89;101144.59;12856475;22;98913;-82
2023/04/14 21:18:04;;;;;;;15.38;6.60;;;;;;;15.12;85.42;101150.94;12855193;22;100996;-82
2023/04/14 21:23:09;;;;;;;17.52;5.97;;;;;;;15.05;85.57;101153.91;12856285;22;99072;-82
2023/04/14 21:28:12;;;;;;;13.38;6.20;;;;;;;14.97;85.19;101159.56;12857191;22;99115;-82
2023/04/14 21:33:16;;;;;;;11.55;6.55;;;;;;;14.85;85.47;101165.41;12856309;22;98936;-82
2023/04/14 21:38:20;;;;;;;12.38;7.22;;;;;;;14.87;86.01;101168.81;12856280;22;99603;-82
2023/04/14 21:43:23;;;;;;;13.70;6.22;;;;;;;14.92;85.59;101155.41;12855881;22;98975;-82
2023/04/14 21:48:27;;;;;;;14.68;6.10;;;;;;;15.01;85.63;101158.50;12856033;22;99102;-82
2023/04/14 21:53:32;;;;;;;10.98;5.35;;;;;;;15.01;85.46;101161.13;12856932;22;98807;-82
2023/04/14 21:58:35;;;;;;;;;;;;;;;14.93;85.43;101165.91;12857231;22;98881;-82
2023/04/14 22:03:40;;;;;;;127.78;12.05;;;;;;;14.93;85.06;101160.63;12856589;22;98873;-82
2023/04/14 22:08:44;;;;;;;;;;;;;;;14.84;85.54;101171.59;12855267;22;99091;-82
2023/04/14 22:13:48;;;;;;;164.48;13.82;;;;;;;14.70;85.70;101174.84;12856192;22;98921;-82
2023/04/14 22:18:52;;;;;;;20.02;7.25;;;;;;;14.70;85.56;101176.63;12855777;22;98703;-82
2023/04/14 22:23:57;;;;;;;12.90;6.17;;;;;;;14.66;85.36;101180.34;12855600;22;99211;-82
2023/04/14 22:29:00;;;;;;;12.60;6.45;;;;;;;14.72;85.06;101185.38;12855847;22;98912;-82
2023/04/14 22:34:04;;;;;;;12.07;6.30;;;;;;;14.67;85.25;101182.06;12856048;22;98895;-82
2023/04/14 22:39:09;;;;;;;12.07;6.38;;;;;;;14.73;84.93;101187.13;12855843;22;98959;-82
2023/04/14 22:44:12;;;;;;;54.40;7.22;;;;;;;14.65;85.05;101190.06;12856510;22;99089;-82
2023/04/14 22:49:15;;;;;;;14.18;5.97;;;;;;;14.69;84.63;101182.84;12855439;22;99936;-82
2023/04/14 22:54:20;;;;;;;11.43;4.90;;;;;;;14.64;84.65;101179.53;12855835;22;99253;-82
2023/04/14 22:59:23;;;;;;;15.10;5.80;;;;;;;14.62;84.45;101184.03;12856612;22;98451;-82
2023/04/14 23:04:30;;;;;;;12.77;6.28;;;;;;;14.66;84.33;101178.53;12858074;22;98899;-82
2023/04/14 23:09:34;;;;;;;28.38;6.63;;;;;;;14.59;84.49;101186.81;12858114;22;99250;-82
2023/04/14 23:14:37;;;;;;;172.50;13.98;;;;;;;14.62;84.42;101189.34;12857646;22;98919;-82
2023/04/14 23:19:41;;;;;;;143.95;12.23;;;;;;;14.65;84.21;101199.78;12857551;22;99105;-82
2023/04/14 23:24:45;;;;;;;81.13;9.88;;;;;;;14.64;84.17;101206.03;12857602;22;99255;-82
2023/04/14 23:29:48;;;;;;;;;;;;;;;14.55;84.42;101209.06;12858229;22;98852;-82